createdAt,value
2023-02-03T00:00:41.199Z,99475.81
2023-02-03T00:03:08.790Z,99479.50
2023-02-03T00:05:37.506Z,99476.25
2023-02-03T00:08:07.497Z,99472.84
2023-02-03T00:10:39.081Z,99476.72
2023-02-03T00:13:07.556Z,99471.28
2023-02-03T00:15:34.555Z,99476.56
2023-02-03T00:18:01.844Z,99475.53
2023-02-03T00:20:29.352Z,99480.25
2023-02-03T00:23:04.591Z,99481.44
2023-02-03T00:25:31.795Z,99486.25
2023-02-03T00:27:58.693Z,99491.25
2023-02-03T00:30:26.696Z,99490.31
2023-02-03T00:32:53.994Z,99487.62
2023-02-03T00:35:21.305Z,99490.31
2023-02-03T00:37:53.473Z,99498.37
2023-02-03T00:40:21.732Z,99496.69
2023-02-03T00:42:49.038Z,99502.72
2023-02-03T00:45:16.501Z,99505.75
2023-02-03T00:47:43.611Z,99514.16
2023-02-03T00:50:11.966Z,99509.47
2023-02-03T00:52:38.864Z,99504.94
2023-02-03T00:55:06.939Z,99510.00
2023-02-03T00:57:34.490Z,99512.97
2023-02-03T01:00:01.413Z,99508.63
2023-02-03T01:02:29.154Z,99508.97
2023-02-03T01:04:56.478Z,99504.75
2023-02-03T01:07:23.720Z,99499.56
2023-02-03T01:09:50.731Z,99503.38
2023-02-03T01:12:18.296Z,99505.84
2023-02-03T01:14:45.446Z,99507.72
2023-02-03T01:17:12.678Z,99502.34
2023-02-03T01:19:39.627Z,99504.75
2023-02-03T01:22:06.836Z,99498.22
2023-02-03T01:24:34.044Z,99497.22
2023-02-03T01:27:01.579Z,99496.84
2023-02-03T01:29:28.432Z,99498.37
2023-02-03T01:31:56.142Z,99488.34
2023-02-03T01:34:23.146Z,99494.34
2023-02-03T01:36:50.681Z,99488.97
2023-02-03T01:39:17.957Z,99487.12
2023-02-03T01:41:45.383Z,99486.94
2023-02-03T01:44:45.381Z,99483.63
2023-02-03T01:47:29.602Z,99483.63
2023-02-03T01:50:14.139Z,99479.91
2023-02-03T01:52:43.915Z,99476.03
2023-02-03T01:55:16.243Z,99478.72
2023-02-03T01:57:51.153Z,99480.38
2023-02-03T02:00:18.877Z,99475.22
2023-02-03T02:02:49.047Z,99467.16
2023-02-03T02:05:27.791Z,99465.50
2023-02-03T02:07:57.902Z,99457.81
2023-02-03T02:10:25.833Z,99460.97
2023-02-03T02:12:57.707Z,99460.97
2023-02-03T02:15:39.592Z,99461.78
2023-02-03T02:18:41.604Z,99458.47
2023-02-03T02:21:49.755Z,99458.47
2023-02-03T02:24:48.107Z,99453.09
2023-02-03T02:27:39.810Z,99455.22
2023-02-03T02:30:22.504Z,99451.72
2023-02-03T02:33:10.453Z,99461.78
2023-02-03T02:36:06.212Z,99460.97
2023-02-03T02:38:54.243Z,99453.75
2023-02-03T02:41:52.573Z,99457.06
2023-02-03T02:44:30.728Z,99461.44
2023-02-03T02:47:02.319Z,99457.06
2023-02-03T02:50:03.432Z,99458.56
2023-02-03T02:52:34.610Z,99453.19
2023-02-03T02:55:10.483Z,99453.84
2023-02-03T02:57:39.835Z,99450.13
2023-02-03T03:00:08.388Z,99457.16
2023-02-03T03:02:36.979Z,99456.34
2023-02-03T03:05:08.987Z,99452.44
2023-02-03T03:07:43.131Z,99451.44
2023-02-03T03:10:14.264Z,99448.75
2023-02-03T03:12:52.160Z,99445.88
2023-02-03T03:15:27.157Z,99449.22
2023-02-03T03:18:24.406Z,99445.50
2023-02-03T03:20:54.771Z,99446.34
2023-02-03T03:23:32.571Z,99451.72
2023-02-03T03:26:11.010Z,99443.13
2023-02-03T03:28:49.826Z,99446.47
2023-02-03T03:31:19.502Z,99447.75
2023-02-03T03:33:47.641Z,99446.72
2023-02-03T03:36:26.517Z,99447.56
2023-02-03T03:39:13.697Z,99442.00
2023-02-03T03:41:59.165Z,99440.62
2023-02-03T03:44:33.288Z,99438.56
2023-02-03T03:47:35.925Z,99442.28
2023-02-03T03:50:06.132Z,99435.50
2023-02-03T03:52:36.380Z,99422.78
2023-02-03T03:55:10.302Z,99419.91
2023-02-03T03:57:43.469Z,99425.44
2023-02-03T04:00:14.368Z,99415.56
2023-02-03T04:02:46.859Z,99410.81
2023-02-03T04:05:14.441Z,99404.63
2023-02-03T04:07:44.982Z,99403.78
2023-02-03T04:10:21.394Z,99401.31
2023-02-03T04:12:48.172Z,99390.09
2023-02-03T04:15:15.690Z,99385.94
2023-02-03T04:17:42.827Z,99382.59
2023-02-03T04:20:10.534Z,99388.97
2023-02-03T04:22:37.965Z,99385.47
2023-02-03T04:25:05.312Z,99393.53
2023-02-03T04:27:32.415Z,99399.72
2023-02-03T04:29:59.805Z,99409.81
2023-02-03T04:32:27.263Z,99415.38
2023-02-03T04:34:54.062Z,99429.59
2023-02-03T04:37:23.397Z,99425.06
2023-02-03T04:39:52.192Z,99433.50
2023-02-03T04:42:19.535Z,99426.47
2023-02-03T04:44:46.672Z,99428.31
2023-02-03T04:47:14.630Z,99401.88
2023-02-03T04:49:41.754Z,99395.66
2023-02-03T04:52:08.860Z,99395.84
2023-02-03T04:54:36.582Z,99405.94
2023-02-03T04:57:03.948Z,99410.09
2023-02-03T04:59:31.094Z,99402.06
2023-02-03T05:01:58.463Z,99408.63
2023-02-03T05:04:25.605Z,99400.72
2023-02-03T05:06:56.369Z,99388.16
2023-02-03T05:09:24.590Z,99403.91
2023-02-03T05:11:52.424Z,99403.25
2023-02-03T05:14:20.359Z,99402.88
2023-02-03T05:16:47.606Z,99397.53
2023-02-03T05:19:14.601Z,99399.37
2023-02-03T05:21:41.705Z,99394.84
2023-02-03T05:24:08.965Z,99398.16
2023-02-03T05:26:36.782Z,99399.19
2023-02-03T05:29:04.161Z,99408.91
2023-02-03T05:31:31.329Z,99417.97
2023-02-03T05:33:58.436Z,99420.84
2023-02-03T05:36:25.525Z,99409.91
2023-02-03T05:38:52.609Z,99415.28
2023-02-03T05:41:38.421Z,99414.44
2023-02-03T05:44:05.495Z,99414.25
2023-02-03T05:46:32.351Z,99419.44
2023-02-03T05:48:59.490Z,99425.81
2023-02-03T05:51:26.660Z,99429.16
2023-02-03T05:53:54.165Z,99432.47
2023-02-03T05:56:21.677Z,99429.97
2023-02-03T05:58:48.984Z,99430.81
2023-02-03T06:01:16.126Z,99428.97
2023-02-03T06:03:45.829Z,99412.22
2023-02-03T06:06:13.429Z,99414.25
2023-02-03T06:08:40.983Z,99419.63
2023-02-03T06:11:07.802Z,99417.13
2023-02-03T06:13:35.010Z,99421.66
2023-02-03T06:16:02.562Z,99418.16
2023-02-03T06:18:29.448Z,99424.53
2023-02-03T06:20:56.423Z,99417.31
2023-02-03T06:23:23.988Z,99405.75
2023-02-03T06:25:51.848Z,99415.66
2023-02-03T06:28:19.236Z,99414.63
2023-02-03T06:30:51.008Z,99417.50
2023-02-03T06:33:18.825Z,99412.47
2023-02-03T06:35:45.940Z,99413.81
2023-02-03T06:38:25.271Z,99413.16
2023-02-03T06:41:05.157Z,99410.47
2023-02-03T06:43:33.030Z,99405.94
2023-02-03T06:46:00.610Z,99406.78
2023-02-03T06:48:28.159Z,99407.41
2023-02-03T06:50:55.939Z,99400.19
2023-02-03T06:53:23.223Z,99404.56
2023-02-03T06:55:50.274Z,99392.78
2023-02-03T06:58:17.794Z,99402.31
2023-02-03T07:00:44.648Z,99392.63
2023-02-03T07:03:11.505Z,99383.72
2023-02-03T07:05:40.487Z,99381.88
2023-02-03T07:08:07.464Z,99379.19
2023-02-03T07:10:34.708Z,99384.75
2023-02-03T07:13:04.068Z,99380.22
2023-02-03T07:15:31.364Z,99385.38
2023-02-03T07:17:58.381Z,99377.34
2023-02-03T07:20:26.533Z,99375.31
2023-02-03T07:22:55.612Z,99373.00
2023-02-03T07:25:23.926Z,99379.19
2023-02-03T07:27:51.845Z,99364.56
2023-02-03T07:30:19.469Z,99365.66
2023-02-03T07:32:51.154Z,99367.50
2023-02-03T07:35:18.641Z,99367.13
2023-02-03T07:37:51.298Z,99361.37
2023-02-03T07:40:18.913Z,99355.84
2023-02-03T07:42:48.977Z,99359.34
2023-02-03T07:45:18.071Z,99343.25
2023-02-03T07:47:45.625Z,99346.22
2023-02-03T07:50:13.495Z,99343.34
2023-02-03T07:52:40.427Z,99352.22
2023-02-03T07:55:08.254Z,99358.88
2023-02-03T07:57:36.299Z,99348.78
2023-02-03T08:00:05.275Z,99350.25
2023-02-03T08:02:32.519Z,99356.25
2023-02-03T08:04:59.760Z,99360.59
2023-02-03T08:07:26.914Z,99356.91
2023-02-03T08:09:54.156Z,99345.97
2023-02-03T08:12:21.546Z,99353.69
2023-02-03T08:14:48.474Z,99354.31
2023-02-03T08:17:15.653Z,99353.28
2023-02-03T08:19:43.620Z,99332.66
2023-02-03T08:22:16.063Z,99326.06
2023-02-03T08:24:46.213Z,99320.50
2023-02-03T08:27:19.636Z,99314.94
2023-02-03T08:29:47.811Z,99314.72
2023-02-03T08:32:18.834Z,99316.19
2023-02-03T08:34:46.401Z,99303.22
2023-02-03T08:37:14.715Z,99312.09
2023-02-03T08:39:42.275Z,99303.84
2023-02-03T08:42:09.729Z,99292.91
2023-02-03T08:44:39.204Z,99291.91
2023-02-03T08:47:07.798Z,99287.00
2023-02-03T08:49:36.016Z,99285.34
2023-02-03T08:52:03.683Z,99299.19
2023-02-03T08:54:30.618Z,99289.09
2023-02-03T08:56:58.836Z,99289.72
2023-02-03T08:59:25.881Z,99286.66
2023-02-03T09:01:53.304Z,99279.22
2023-02-03T09:04:24.940Z,99274.28
2023-02-03T09:06:56.720Z,99273.91
2023-02-03T09:09:24.321Z,99279.72
2023-02-03T09:11:51.589Z,99267.78
2023-02-03T09:14:19.046Z,99267.19
2023-02-03T09:16:46.402Z,99262.44
2023-02-03T09:19:14.040Z,99264.53
2023-02-03T09:21:45.865Z,99261.25
2023-02-03T09:24:19.318Z,99257.81
2023-02-03T09:26:46.943Z,99252.66
2023-02-03T09:29:14.898Z,99259.09
2023-02-03T09:31:41.923Z,99245.25
2023-02-03T09:34:09.988Z,99245.69
2023-02-03T09:36:37.772Z,99237.84
2023-02-03T09:39:05.660Z,99234.59
2023-02-03T09:41:55.036Z,99237.69
2023-02-03T09:44:31.937Z,99226.53
2023-02-03T09:47:09.640Z,99228.63
2023-02-03T09:49:43.023Z,99219.12
2023-02-03T09:52:23.064Z,99230.31
2023-02-03T09:55:01.576Z,99233.44
2023-02-03T09:57:32.547Z,99234.91
2023-02-03T10:00:09.977Z,99219.41
2023-02-03T10:02:48.890Z,99197.47
2023-02-03T10:05:47.153Z,99193.97
2023-02-03T10:08:36.953Z,99188.16
2023-02-03T10:11:11.481Z,99169.75
2023-02-03T10:13:57.069Z,99145.78
2023-02-03T10:16:36.371Z,99148.06
2023-02-03T10:19:11.957Z,99129.84
2023-02-03T10:21:47.409Z,99125.69
2023-02-03T10:24:25.236Z,99120.72
2023-02-03T10:26:53.780Z,99117.41
2023-02-03T10:29:36.455Z,99098.19
2023-02-03T10:32:18.323Z,99101.28
2023-02-03T10:35:05.990Z,99091.97
2023-02-03T10:37:48.521Z,99085.34
2023-02-03T10:40:17.540Z,99087.59
2023-02-03T10:43:09.258Z,99079.31
2023-02-03T10:45:40.479Z,99065.66
2023-02-03T10:48:14.511Z,99060.06
2023-02-03T10:50:54.344Z,99046.38
2023-02-03T10:53:28.964Z,99035.22
2023-02-03T10:56:07.600Z,99027.78
2023-02-03T10:58:43.702Z,99030.88
2023-02-03T11:01:16.702Z,99027.75
2023-02-03T11:03:57.234Z,99023.81
2023-02-03T11:06:25.498Z,99020.69
2023-02-03T11:08:56.179Z,99024.00
2023-02-03T11:11:27.911Z,99010.13
2023-02-03T11:14:04.379Z,99004.31
2023-02-03T11:16:34.411Z,98997.66
2023-02-03T11:19:10.179Z,98996.22
2023-02-03T11:21:39.597Z,98991.22
2023-02-03T11:24:17.331Z,98982.72
2023-02-03T11:26:52.818Z,98988.28
2023-02-03T11:29:26.947Z,98978.72
2023-02-03T11:31:59.808Z,98974.56
2023-02-03T11:34:38.159Z,98986.59
2023-02-03T11:37:31.801Z,98981.59
2023-02-03T11:40:08.323Z,98980.34
2023-02-03T11:42:37.334Z,98972.44
2023-02-03T11:45:26.170Z,98974.91
2023-02-03T11:47:58.298Z,98970.94
2023-02-03T11:50:36.505Z,98969.69
2023-02-03T11:53:24.068Z,98964.06
2023-02-03T11:56:11.504Z,98958.28
2023-02-03T11:58:46.751Z,98950.59
2023-02-03T12:01:20.049Z,98944.97
2023-02-03T12:04:12.706Z,98942.06
2023-02-03T12:07:18.867Z,98942.66
2023-02-03T12:09:59.080Z,98932.69
2023-02-03T12:12:51.679Z,98922.53
2023-02-03T12:15:23.676Z,98926.03
2023-02-03T12:17:56.971Z,98914.22
2023-02-03T12:20:50.499Z,98915.88
2023-02-03T12:23:38.215Z,98906.94
2023-02-03T12:26:21.908Z,98904.25
2023-02-03T12:29:14.762Z,98901.34
2023-02-03T12:32:03.823Z,98888.06
2023-02-03T12:34:38.449Z,98883.28
2023-02-03T12:37:24.428Z,98887.84
2023-02-03T12:39:54.339Z,98876.84
2023-02-03T12:42:28.770Z,98866.06
2023-02-03T12:45:06.306Z,98866.88
2023-02-03T12:47:42.940Z,98856.91
2023-02-03T12:50:46.363Z,98840.75
2023-02-03T12:53:22.790Z,98836.16
2023-02-03T12:56:01.772Z,98811.91
2023-02-03T12:58:35.147Z,98812.50
2023-02-03T13:01:12.809Z,98798.19
2023-02-03T13:03:47.267Z,98784.72
2023-02-03T13:06:19.999Z,98772.06
2023-02-03T13:09:21.443Z,98767.47
2023-02-03T13:12:00.517Z,98773.69
2023-02-03T13:14:30.206Z,98758.37
2023-02-03T13:17:14.990Z,98761.91
2023-02-03T13:19:59.444Z,98752.97
2023-02-03T13:22:27.303Z,98740.31
2023-02-03T13:25:05.240Z,98733.06
2023-02-03T13:28:11.379Z,98720.37
2023-02-03T13:31:03.583Z,98706.91
2023-02-03T13:33:46.219Z,98705.84
2023-02-03T13:36:50.404Z,98696.94
2023-02-03T13:39:45.613Z,98692.38
2023-02-03T13:42:29.760Z,98679.72
2023-02-03T13:45:09.117Z,98673.50
2023-02-03T13:47:36.935Z,98660.84
2023-02-03T13:50:07.682Z,98656.03
2023-02-03T13:52:58.088Z,98655.22
2023-02-03T13:55:30.851Z,98645.25
2023-02-03T13:57:58.541Z,98646.06
2023-02-03T14:00:44.772Z,98639.84
2023-02-03T14:03:24.789Z,98628.84
2023-02-03T14:05:55.339Z,98631.53
2023-02-03T14:08:25.750Z,98628.84
2023-02-03T14:11:30.637Z,98627.78
2023-02-03T14:14:12.751Z,98625.91
2023-02-03T14:16:48.509Z,98628.59
2023-02-03T14:19:30.845Z,98622.16
2023-02-03T14:22:04.239Z,98613.25
2023-02-03T14:24:39.473Z,98616.53
2023-02-03T14:27:19.125Z,98607.41
2023-02-03T14:29:46.749Z,98598.47
2023-02-03T14:32:14.366Z,98596.59
2023-02-03T14:34:44.789Z,98592.03
2023-02-03T14:37:32.397Z,98584.53
2023-02-03T14:40:11.156Z,98581.03
2023-02-03T14:43:11.737Z,98574.56
2023-02-03T14:45:49.096Z,98577.03
2023-02-03T14:48:52.648Z,98572.47
2023-02-03T14:51:31.990Z,98567.91
2023-02-03T14:54:33.376Z,98564.97
2023-02-03T14:57:26.941Z,98561.44
2023-02-03T15:00:03.657Z,98559.56
2023-02-03T15:02:33.023Z,98564.72
2023-02-03T15:05:12.840Z,98577.16
2023-02-03T15:07:46.542Z,98579.03
2023-02-03T15:10:20.442Z,98594.19
2023-02-03T15:12:54.751Z,98586.91
2023-02-03T15:15:24.674Z,98588.78
2023-02-03T15:17:54.615Z,98585.84
2023-02-03T15:20:41.834Z,98587.72
2023-02-03T15:23:22.256Z,98576.94
2023-02-03T15:26:00.383Z,98583.16
2023-02-03T15:28:29.618Z,98582.13
2023-02-03T15:31:07.265Z,98579.44
2023-02-03T15:33:37.770Z,98573.00
2023-02-03T15:36:22.023Z,98591.06
2023-02-03T15:38:56.233Z,98602.91
2023-02-03T15:41:25.655Z,98602.91
2023-02-03T15:44:03.032Z,98602.03
2023-02-03T15:46:38.213Z,98608.50
2023-02-03T15:49:40.829Z,98602.91
2023-02-03T15:52:17.338Z,98595.62
2023-02-03T15:54:55.243Z,98602.03
2023-02-03T15:57:28.587Z,98612.84
2023-02-03T16:00:13.141Z,98606.84
2023-02-03T16:02:46.233Z,98599.56
2023-02-03T16:05:28.466Z,98587.12
2023-02-03T16:07:56.696Z,98599.81
2023-02-03T16:10:31.054Z,98594.62
2023-02-03T16:13:23.552Z,98599.81
2023-02-03T16:16:28.910Z,98590.87
2023-02-03T16:19:06.482Z,98564.97
2023-02-03T16:21:43.721Z,98567.06
2023-02-03T16:24:31.382Z,98554.19
2023-02-03T16:27:21.904Z,98527.66
2023-02-03T16:30:07.893Z,98515.22
2023-02-03T16:32:54.200Z,98522.50
2023-02-03T16:35:40.083Z,98513.59
2023-02-03T16:38:37.360Z,98507.97
2023-02-03T16:41:35.304Z,98492.84
2023-02-03T16:44:21.104Z,98493.06
2023-02-03T16:47:08.126Z,98500.91
2023-02-03T16:49:54.250Z,98516.06
2023-02-03T16:52:21.631Z,98509.00
2023-02-03T16:54:49.510Z,98506.91
2023-02-03T16:57:19.283Z,98514.75
2023-02-03T16:59:49.296Z,98501.88
2023-02-03T17:02:17.256Z,98498.34
2023-02-03T17:04:46.927Z,98504.34
2023-02-03T17:07:14.915Z,98488.97
2023-02-03T17:09:44.800Z,98481.50
2023-02-03T17:12:14.523Z,98475.25
2023-02-03T17:14:42.058Z,98486.66
2023-02-03T17:17:09.569Z,98489.12
2023-02-03T17:19:37.455Z,98479.16
2023-02-03T17:22:04.775Z,98457.56
2023-02-03T17:24:33.213Z,98457.09
2023-02-03T17:27:00.637Z,98463.09
2023-02-03T17:29:29.842Z,98452.28
2023-02-03T17:31:57.780Z,98441.03
2023-02-03T17:34:25.612Z,98455.34
2023-02-03T17:36:55.859Z,98455.34
2023-02-03T17:55:38.121Z,98445.59
2023-02-03T17:58:06.091Z,98437.06
2023-02-03T18:00:34.112Z,98436.00
2023-02-03T18:03:02.236Z,98442.81
2023-02-03T18:05:30.045Z,98438.13
2023-02-03T18:08:01.101Z,98432.47
2023-02-03T18:10:34.299Z,98433.88
2023-02-03T18:13:02.366Z,98426.97
2023-02-03T18:15:31.036Z,98439.19
2023-02-03T18:18:00.023Z,98433.91
2023-02-03T18:20:29.032Z,98439.88
2023-02-03T18:22:56.769Z,98440.22
2023-02-03T18:25:25.372Z,98443.75
2023-02-03T18:27:55.218Z,98425.19
2023-02-03T18:30:24.164Z,98435.19
2023-02-03T18:32:55.431Z,98436.81
2023-02-03T18:35:23.996Z,98439.03
2023-02-03T18:37:52.381Z,98431.53
2023-02-03T18:40:21.956Z,98440.44
2023-02-03T18:42:50.970Z,98445.59
2023-02-03T18:45:19.390Z,98429.41
2023-02-03T18:47:48.037Z,98429.19
2023-02-03T18:50:17.322Z,98452.44
2023-02-03T18:52:47.540Z,98454.91
2023-02-03T18:55:15.991Z,98459.25
2023-02-03T18:57:44.456Z,98461.72
2023-02-03T19:00:15.161Z,98466.88
2023-02-03T19:02:44.035Z,98467.69
2023-02-03T19:05:13.347Z,98479.09
2023-02-03T19:07:43.396Z,98471.56
2023-02-03T19:10:13.671Z,98475.66
2023-02-03T19:12:44.137Z,98493.53
2023-02-03T19:15:15.178Z,98502.22
2023-02-03T19:17:45.032Z,98504.91
2023-02-03T19:20:15.000Z,98517.13
2023-02-03T19:22:44.518Z,98536.63
2023-02-03T19:25:13.334Z,98564.25
2023-02-03T19:27:45.466Z,98556.72
2023-02-03T19:30:16.584Z,98564.59
2023-02-03T19:32:45.422Z,98574.94
2023-02-03T19:35:17.180Z,98579.88
2023-02-03T19:37:45.838Z,98592.91
2023-02-03T19:40:14.891Z,98588.09
2023-02-03T19:42:47.327Z,98600.28
2023-02-03T19:45:20.793Z,98608.16
2023-02-03T19:47:50.477Z,98607.69
2023-02-03T19:50:23.513Z,98613.91
2023-02-03T19:52:53.566Z,98597.13
2023-02-03T19:55:22.348Z,98610.28
2023-02-03T19:57:51.285Z,98615.09
2023-02-03T20:00:21.399Z,98604.19
2023-02-03T20:02:53.517Z,98622.75
2023-02-03T20:05:23.027Z,98629.22
2023-02-03T20:07:53.237Z,98638.22
2023-02-03T20:10:22.648Z,98636.59
2023-02-03T20:12:51.702Z,98635.19
2023-02-03T20:15:20.708Z,98653.50
2023-02-03T20:17:55.728Z,98653.97
2023-02-03T20:20:24.849Z,98659.59
2023-02-03T20:22:54.174Z,98640.34
2023-02-03T20:25:23.226Z,98672.03
2023-02-03T20:27:52.117Z,98655.84
2023-02-03T20:30:20.899Z,98664.16
2023-02-03T20:32:49.000Z,98683.50
2023-02-03T20:35:19.090Z,98681.03
2023-02-03T20:37:47.777Z,98679.41
2023-02-03T20:40:26.483Z,98674.00
2023-02-03T20:42:56.622Z,98675.66
2023-02-03T20:45:25.990Z,98671.16
2023-02-03T20:47:55.275Z,98664.94
2023-02-03T20:50:34.236Z,98662.47
2023-02-03T20:53:15.022Z,98660.84
2023-02-03T20:55:43.173Z,98665.19
2023-02-03T20:58:19.127Z,98651.91
2023-02-03T21:00:48.269Z,98652.13
2023-02-03T21:03:37.333Z,98645.91
2023-02-03T21:06:28.086Z,98645.56
2023-02-03T21:09:02.822Z,98653.44
2023-02-03T21:11:31.788Z,98646.38
2023-02-03T21:14:00.336Z,98638.50
2023-02-03T21:16:40.186Z,98646.84
2023-02-03T21:19:16.396Z,98637.31
2023-02-03T21:21:47.720Z,98640.69
2023-02-03T21:24:38.185Z,98633.66
2023-02-03T21:27:33.032Z,98637.19
2023-02-03T21:30:23.529Z,98628.84
2023-02-03T21:32:52.413Z,98638.22
2023-02-03T21:35:24.180Z,98629.53
2023-02-03T21:37:57.897Z,98624.00
2023-02-03T21:40:29.527Z,98634.34
2023-02-03T21:42:59.345Z,98627.53
2023-02-03T21:45:36.292Z,98619.09
2023-02-03T21:48:25.333Z,98614.50
2023-02-03T21:51:00.043Z,98617.19
2023-02-03T21:53:35.194Z,98611.69
2023-02-03T21:56:16.333Z,98616.47
2023-02-03T21:58:46.076Z,98607.75
2023-02-03T22:01:16.819Z,98603.81
2023-02-03T22:03:50.043Z,98601.94
2023-02-03T22:06:40.981Z,98590.50
2023-02-03T22:09:12.626Z,98586.78
2023-02-03T22:11:39.742Z,98583.25
2023-02-03T22:14:07.670Z,98574.94
2023-02-03T22:16:34.970Z,98574.31
2023-02-03T22:19:04.392Z,98570.59
2023-02-03T22:21:31.926Z,98570.81
2023-02-03T22:24:00.056Z,98572.91
2023-02-03T22:26:27.918Z,98575.03
2023-02-03T22:28:55.439Z,98570.22
2023-02-03T22:31:23.010Z,98566.03
2023-02-03T22:33:52.404Z,98560.41
2023-02-03T22:36:19.998Z,98553.56
2023-02-03T22:38:47.596Z,98552.06
2023-02-03T22:41:17.155Z,98552.87
2023-02-03T22:43:44.669Z,98564.03
2023-02-03T22:46:11.868Z,98554.53
2023-02-03T22:48:39.029Z,98547.63
2023-02-03T22:51:06.105Z,98549.25
2023-02-03T22:53:35.069Z,98559.81
2023-02-03T22:56:02.318Z,98558.31
2023-02-03T22:58:29.981Z,98563.94
2023-02-03T23:00:56.813Z,98558.75
2023-02-03T23:03:24.047Z,98568.50
2023-02-03T23:05:51.622Z,98589.63
2023-02-03T23:08:18.531Z,98590.47
2023-02-03T23:10:45.421Z,98580.47
2023-02-03T23:13:12.831Z,98586.13
2023-02-03T23:15:40.104Z,98587.75
2023-02-03T23:18:06.946Z,98581.53
2023-02-03T23:20:34.070Z,98588.59
2023-02-03T23:23:01.284Z,98591.87
2023-02-03T23:25:28.426Z,98595.62
2023-02-03T23:27:55.600Z,98596.09
2023-02-03T23:30:23.198Z,98590.69
2023-02-03T23:32:50.488Z,98591.75
2023-02-03T23:35:36.425Z,98590.56
2023-02-03T23:38:03.750Z,98595.97
2023-02-03T23:40:31.075Z,98595.97
2023-02-03T23:42:58.068Z,98602.88
2023-02-03T23:48:52.061Z,98600.66
2023-02-03T23:51:19.346Z,98607.09
2023-02-03T23:53:46.685Z,98611.91
2023-02-03T23:56:13.970Z,98611.09
2023-02-03T23:58:41.309Z,98618.78
